Terminal Aerodrome Forecast
Issued by NWS Sterling, VA

Current Version | Previous Version | Graphics & Text | Print | Product List | Glossary On
Versions: 1 2 3 4 5 6 7 8 9 10 11 12 13 14 15 16 17 18 19 20 21 22 23 24 25 26 27 28 29 30
000
FTUS41 KLWX 161300 AAA
TAFIAD
TAF AMD
KIAD 161343Z 1614/1718 00000KT 4SM BR BCFG BKN120
     FM161600 16007KT 5SM -SHRA OVC030
     FM162100 21004KT P6SM -DZ OVC020
     FM170100 25005KT P6SM BKN050
     FM171000 28009KT P6SM SCT050=

USA.gov is the U.S. government's official web portal to all federal, state and local government web resources and services.